Time;durP1;ratioP1;P1;durP2;ratioP2;P2;SDS_P1;SDS_P2;PMS_P1;PMS_P2;Temp;Humidity;BMP_temperature;BMP_pressure;BME280_temperature;BME280_humidity;BME280_pressure;Samples;Min_cycle;Max_cycle;Signal;HPM_P1;HPM_P2
2022/08/27 00:02:16;;;;;;;6.10;2.50;;;;;;;18.09;73.32;101636.06;5165811;28;20051;-78
2022/08/27 00:04:47;;;;;;;7.80;4.00;;;;;;;17.72;75.78;101641.59;5167998;28;20089;-78
2022/08/27 00:07:19;;;;;;;8.90;2.83;;;;;;;18.01;73.53;101641.13;5166496;28;20023;-77
2022/08/27 00:09:50;;;;;;;7.53;2.27;;;;;;;17.94;73.86;101637.28;5167516;28;20129;-77
2022/08/27 00:12:21;;;;;;;6.60;1.90;;;;;;;17.72;75.26;101636.28;5178554;28;20508;-77
2022/08/27 00:14:52;;;;;;;7.90;3.30;;;;;;;17.80;74.80;101631.25;5167751;28;20485;-77
2022/08/27 00:17:24;;;;;;;7.17;2.30;;;;;;;17.78;74.30;101626.06;5166297;28;20541;-77
2022/08/27 00:19:55;;;;;;;9.37;2.37;;;;;;;17.65;75.44;101630.63;5169912;28;20038;-77
2022/08/27 00:22:26;;;;;;;7.73;2.10;;;;;;;17.68;75.69;101634.88;5171272;28;20043;-77
2022/08/27 00:24:58;;;;;;;4.90;1.80;;;;;;;17.59;75.63;101623.19;5171852;28;20030;-77
2022/08/27 00:27:29;;;;;;;8.67;2.37;;;;;;;17.61;75.33;101619.44;5171396;28;20042;-77
2022/08/27 00:30:01;;;;;;;8.77;2.50;;;;;;;17.57;76.04;101628.59;5171378;28;20612;-76
2022/08/27 00:32:32;;;;;;;5.50;2.50;;;;;;;17.66;75.60;101627.03;5170570;28;20113;-76
2022/08/27 00:35:05;;;;;;;10.53;2.47;;;;;;;17.62;75.46;101621.13;5171421;28;20031;-77
2022/08/27 00:37:36;;;;;;;7.53;2.60;;;;;;;17.53;76.50;101622.69;5171288;28;20027;-77
2022/08/27 00:40:13;;;;;;;8.60;1.80;;;;;;;17.32;78.17;101625.19;5171815;28;20486;-76
2022/08/27 00:42:45;;;;;;;7.93;2.20;;;;;;;17.38;77.19;101637.97;5170082;28;20065;-76
2022/08/27 00:45:21;;;;;;;4.77;2.30;;;;;;;17.44;77.20;101633.16;5170929;28;20034;-77
2022/08/27 00:47:56;;;;;;;7.73;2.73;;;;;;;17.42;77.40;101634.09;5168741;28;20274;-77
2022/08/27 00:50:42;;;;;;;8.00;2.50;;;;;;;17.31;77.85;101620.84;5170937;28;20059;-77
2022/08/27 00:53:18;;;;;;;9.80;2.77;;;;;;;17.21;78.82;101623.34;5170440;28;20477;-72
2022/08/27 00:56:00;;;;;;;5.60;2.40;;;;;;;17.36;77.80;101631.09;5170030;28;20034;-78
2022/08/27 00:58:36;;;;;;;6.60;2.70;;;;;;;17.04;79.20;101628.09;5170459;28;20030;-77
2022/08/27 01:01:10;;;;;;;7.87;2.37;;;;;;;17.21;78.24;101633.09;5170710;28;20027;-77
2022/08/27 01:03:46;;;;;;;7.03;2.20;;;;;;;17.20;78.15;101626.97;5169653;28;20113;-77
2022/08/27 01:06:20;;;;;;;5.37;2.20;;;;;;;17.02;79.35;101615.91;5170832;28;20034;-77
2022/08/27 01:09:00;;;;;;;5.30;2.50;;;;;;;16.95;80.23;101625.31;5170956;28;20137;-78
2022/08/27 01:11:32;;;;;;;5.97;2.83;;;;;;;16.81;80.40;101619.22;5174016;28;20018;-77
2022/08/27 01:14:04;;;;;;;9.50;3.80;;;;;;;16.80;80.28;101612.25;5190037;28;20037;-76
2022/08/27 01:16:40;;;;;;;6.80;2.37;;;;;;;17.00;79.74;101621.34;5179674;28;20465;-75
2022/08/27 01:19:33;;;;;;;6.87;2.87;;;;;;;17.04;79.30;101616.66;5170201;28;20118;-76
2022/08/27 01:22:23;;;;;;;7.57;3.00;;;;;;;16.99;79.84;101614.38;5170596;28;20027;-78
2022/08/27 01:24:58;;;;;;;8.13;3.07;;;;;;;16.93;79.68;101620.94;5186146;28;20054;-76
2022/08/27 01:27:30;;;;;;;6.23;3.47;;;;;;;16.89;80.18;101621.31;5187381;28;20102;-75
2022/08/27 01:30:03;;;;;;;6.30;2.50;;;;;;;16.88;79.91;101617.81;5170166;28;20031;-76
2022/08/27 01:32:35;;;;;;;8.13;2.50;;;;;;;16.78;80.20;101615.00;5169668;28;20026;-75
2022/08/27 01:35:09;;;;;;;8.83;2.23;;;;;;;16.56;80.66;101592.78;5169598;28;20828;-79
2022/08/27 01:37:42;;;;;;;6.40;2.80;;;;;;;16.69;81.39;101611.25;5169941;28;20018;-77
2022/08/27 01:40:15;;;;;;;6.90;2.60;;;;;;;16.76;80.87;101609.00;5169972;28;20070;-78
2022/08/27 01:42:49;;;;;;;5.50;2.47;;;;;;;16.75;80.92;101606.47;5170562;28;20034;-78
2022/08/27 01:45:36;;;;;;;8.07;3.00;;;;;;;16.81;80.53;101613.94;5169583;28;20109;-77
2022/08/27 01:48:07;;;;;;;5.27;2.57;;;;;;;16.63;81.32;101610.84;5169593;28;20598;-78
2022/08/27 01:50:39;;;;;;;6.20;2.97;;;;;;;16.51;82.19;101609.97;5170742;28;20143;-76
2022/08/27 01:53:16;;;;;;;9.27;3.27;;;;;;;16.53;81.51;101606.25;5170138;28;20038;-77
2022/08/27 01:55:50;;;;;;;8.30;2.80;;;;;;;16.55;81.48;101614.91;5169784;28;20030;-77
2022/08/27 01:58:25;;;;;;;8.23;3.10;;;;;;;16.62;81.63;101611.81;5169822;28;20033;-77
2022/08/27 02:01:02;;;;;;;9.63;2.77;;;;;;;16.51;81.88;101599.38;5169544;28;20845;-77
2022/08/27 02:03:35;;;;;;;6.60;3.07;;;;;;;16.32;82.81;101600.72;5149311;28;20772;-77
2022/08/27 02:06:09;;;;;;;8.70;3.03;;;;;;;16.40;82.66;101608.09;5157394;28;20488;-78
2022/08/27 02:08:41;;;;;;;9.48;2.72;;;;;;;16.19;83.33;101606.91;5168399;28;20043;-77
2022/08/27 02:11:12;;;;;;;8.23;3.03;;;;;;;16.38;82.59;101599.44;5169428;28;20022;-77
2022/08/27 02:13:43;;;;;;;10.50;3.10;;;;;;;16.23;83.60;101602.25;5169267;28;20685;-77
2022/08/27 02:16:15;;;;;;;5.83;2.90;;;;;;;16.11;84.95;101596.03;5169876;28;20037;-77
2022/08/27 02:18:47;;;;;;;9.07;3.27;;;;;;;15.88;86.30;101597.66;5168328;28;20386;-77
2022/08/27 02:21:19;;;;;;;10.30;3.33;;;;;;;15.98;85.40;101598.69;5169264;28;20497;-78
2022/08/27 02:23:50;;;;;;;7.77;3.67;;;;;;;15.97;85.86;101596.97;5170206;28;20062;-78
2022/08/27 02:26:22;;;;;;;10.57;4.03;;;;;;;16.01;85.77;101592.34;5167519;28;20033;-77
2022/08/27 02:28:54;;;;;;;7.50;3.63;;;;;;;16.05;85.39;101589.41;5168136;28;20123;-78
2022/08/27 02:31:25;;;;;;;11.63;3.47;;;;;;;15.93;85.75;101592.88;5168604;28;20052;-78
2022/08/27 02:33:56;;;;;;;7.40;3.27;;;;;;;16.10;85.00;101581.13;5168484;28;20465;-77
2022/08/27 02:36:28;;;;;;;7.03;2.90;;;;;;;15.83;86.87;101585.59;5169341;28;20023;-77
2022/08/27 02:39:00;;;;;;;8.07;4.20;;;;;;;16.08;84.59;101596.25;5167793;28;20437;-78
2022/08/27 02:41:31;;;;;;;4.93;2.97;;;;;;;15.99;85.15;101581.03;5168886;28;20030;-78
2022/08/27 02:44:04;;;;;;;7.13;3.50;;;;;;;16.03;85.64;101585.16;5169073;28;20867;-78
2022/08/27 02:46:37;;;;;;;10.83;3.67;;;;;;;15.93;85.44;101575.25;5169025;28;20026;-77
2022/08/27 02:49:09;;;;;;;6.40;3.43;;;;;;;16.04;84.79;101586.88;5166705;28;20027;-78
2022/08/27 02:51:41;;;;;;;10.43;4.17;;;;;;;15.78;85.77;101581.63;5168660;28;20034;-78
2022/08/27 02:54:13;;;;;;;11.33;4.33;;;;;;;15.96;85.89;101590.88;5168131;28;20035;-78
2022/08/27 02:56:44;;;;;;;8.30;3.90;;;;;;;15.97;86.21;101586.41;5168547;28;20034;-78
2022/08/27 02:59:16;;;;;;;9.50;3.57;;;;;;;15.92;86.12;101583.25;5167621;28;20042;-78
2022/08/27 03:01:47;;;;;;;10.03;4.20;;;;;;;15.94;85.63;101576.91;5168130;28;20784;-77
2022/08/27 03:04:19;;;;;;;10.97;3.83;;;;;;;15.96;85.81;101585.59;5167185;28;20026;-77
2022/08/27 03:06:50;;;;;;;6.90;4.87;;;;;;;15.99;86.44;101594.25;5168949;28;20027;-77
2022/08/27 03:09:21;;;;;;;11.63;4.63;;;;;;;15.96;86.91;101596.16;5168259;28;20119;-77
2022/08/27 03:11:53;;;;;;;8.30;4.10;;;;;;;16.06;85.90;101590.22;5168889;28;20050;-78
2022/08/27 03:14:25;;;;;;;12.27;4.13;;;;;;;16.09;85.90;101588.22;5168632;28;20130;-77
2022/08/27 03:18:16;;;;;;;7.00;3.83;;;;;;;16.06;86.61;101595.50;5166223;28;20541;-77
2022/08/27 03:19:51;;;;;;;7.28;4.72;;;;;;;16.05;86.44;101591.19;5168264;28;20149;-78
2022/08/27 03:22:24;;;;;;;8.67;3.93;;;;;;;15.92;86.85;101586.75;5168548;28;20050;-77
2022/08/27 03:24:55;;;;;;;5.40;3.67;;;;;;;15.92;87.17;101586.75;5168748;28;20030;-78
2022/08/27 03:27:27;;;;;;;9.50;4.60;;;;;;;15.90;87.23;101588.66;5166506;28;20093;-77
2022/08/27 03:30:01;;;;;;;8.37;4.17;;;;;;;15.96;87.19;101593.50;5168580;28;20039;-77
2022/08/27 03:32:34;;;;;;;7.63;3.73;;;;;;;15.79;88.06;101585.94;5165581;28;20821;-78
2022/08/27 03:35:06;;;;;;;9.60;4.00;;;;;;;15.93;87.16;101585.81;5168348;28;20031;-77
2022/08/27 03:37:37;;;;;;;10.23;4.73;;;;;;;15.94;87.60;101592.75;5168051;28;20501;-77
2022/08/27 03:40:09;;;;;;;10.43;4.33;;;;;;;15.67;88.97;101585.84;5168007;28;20038;-77
2022/08/27 03:42:41;;;;;;;10.40;4.70;;;;;;;15.85;88.23;101588.13;5168365;28;20015;-75
2022/08/27 03:45:13;;;;;;;8.70;4.50;;;;;;;15.87;88.00;101593.28;5167358;28;20042;-75
2022/08/27 03:47:44;;;;;;;5.07;3.90;;;;;;;15.87;87.50;101591.50;5167418;28;20500;-75
2022/08/27 03:50:15;;;;;;;7.27;4.50;;;;;;;15.73;88.47;101580.13;5168103;28;20494;-75
2022/08/27 03:52:47;;;;;;;7.33;4.77;;;;;;;15.85;88.20;101588.13;5167295;28;20030;-75
2022/08/27 03:55:18;;;;;;;10.07;4.80;;;;;;;15.79;88.85;101604.41;5165462;28;20030;-76
2022/08/27 03:57:49;;;;;;;9.10;4.50;;;;;;;15.66;89.80;101594.72;5167981;28;20026;-77
2022/08/27 04:00:23;;;;;;;9.40;4.93;;;;;;;15.87;88.71;101591.50;5167095;28;20045;-76
2022/08/27 04:02:54;;;;;;;9.13;4.80;;;;;;;15.64;90.89;101591.31;5167004;28;20141;-76
2022/08/27 04:05:26;;;;;;;11.83;5.03;;;;;;;15.87;89.69;101590.66;5167519;28;20122;-77
2022/08/27 04:07:57;;;;;;;8.27;4.90;;;;;;;15.81;89.34;101584.03;5167778;28;20046;-76
2022/08/27 04:10:28;;;;;;;11.83;4.83;;;;;;;15.78;89.27;101587.72;5167513;28;20039;-78
2022/08/27 04:13:00;;;;;;;8.97;4.97;;;;;;;15.57;91.50;101595.34;5166856;28;20125;-76
2022/08/27 04:15:32;;;;;;;12.63;5.83;;;;;;;15.73;90.33;101584.56;5167571;28;20038;-76
2022/08/27 04:18:03;;;;;;;11.67;4.53;;;;;;;15.77;90.97;101590.47;5168122;28;20243;-77
2022/08/27 04:20:35;;;;;;;6.93;4.37;;;;;;;15.72;90.43;101583.72;5186172;28;20647;-77
2022/08/27 04:23:06;;;;;;;11.13;4.53;;;;;;;15.76;90.37;101583.50;5167282;28;20038;-77
2022/08/27 04:25:39;;;;;;;10.00;4.63;;;;;;;15.61;91.12;101575.69;5167863;28;20043;-77
2022/08/27 04:28:11;;;;;;;6.97;4.50;;;;;;;15.64;91.19;101591.31;5168022;28;20054;-77
2022/08/27 04:30:44;;;;;;;10.33;4.77;;;;;;;15.66;91.06;101596.50;5165693;28;20030;-77
2022/08/27 04:33:16;;;;;;;8.27;4.60;;;;;;;15.67;90.69;101591.13;5166784;28;20634;-77
2022/08/27 04:35:56;;;;;;;8.67;4.60;;;;;;;15.44;92.96;101590.94;5167360;28;20110;-76
2022/08/27 04:38:28;;;;;;;10.20;4.77;;;;;;;15.48;93.01;101592.38;5167148;28;20524;-77
2022/08/27 04:41:18;;;;;;;10.13;4.40;;;;;;;15.30;94.51;101604.22;5167509;28;20027;-76
2022/08/27 04:43:55;;;;;;;13.27;5.00;;;;;;;15.44;94.71;101604.13;5168038;28;20026;-77
2022/08/27 04:46:33;;;;;;;9.17;5.37;;;;;;;15.40;96.28;101600.00;5166534;28;20274;-76
2022/08/27 04:49:10;;;;;;;12.93;4.90;;;;;;;15.50;96.26;101605.47;5166194;28;20130;-77
2022/08/27 04:51:41;;;;;;;8.50;5.17;;;;;;;15.59;96.14;101609.28;5165680;28;20505;-76
2022/08/27 04:54:13;;;;;;;12.80;5.10;;;;;;;15.63;96.03;101610.78;5167719;28;20031;-72
2022/08/27 04:56:44;;;;;;;11.03;5.03;;;;;;;15.46;97.31;101602.19;5167673;28;20034;-77
2022/08/27 04:59:16;;;;;;;15.53;6.13;;;;;;;15.56;97.60;101607.72;5166292;28;20062;-77
2022/08/27 05:01:47;;;;;;;10.13;5.63;;;;;;;15.63;97.52;101604.63;5166618;28;20098;-77
2022/08/27 05:04:18;;;;;;;7.93;4.40;;;;;;;15.45;98.76;101597.88;5166958;28;20085;-77
2022/08/27 05:06:50;;;;;;;7.63;4.63;;;;;;;15.59;98.77;101610.13;5171185;28;20473;-76
2022/08/27 05:09:21;;;;;;;11.97;5.93;;;;;;;15.66;98.77;101610.56;5170371;28;20042;-76
2022/08/27 05:11:54;;;;;;;11.20;6.17;;;;;;;15.68;98.90;101613.94;5170535;28;20027;-75
2022/08/27 05:14:28;;;;;;;10.23;5.47;;;;;;;15.55;100.00;101605.19;5169572;28;20591;-75
2022/08/27 05:17:00;;;;;;;12.10;5.63;;;;;;;15.59;100.00;101598.72;5169950;28;20085;-75
2022/08/27 05:19:31;;;;;;;9.63;5.30;;;;;;;15.77;99.39;101606.31;5168943;28;20039;-75
2022/08/27 05:22:03;;;;;;;9.50;5.90;;;;;;;15.81;100.00;101613.09;5170441;28;20085;-75
2022/08/27 05:24:34;;;;;;;9.83;5.60;;;;;;;15.80;99.62;101614.00;5170996;28;20027;-75
2022/08/27 05:27:05;;;;;;;11.40;5.00;;;;;;;15.75;98.81;101592.38;5153148;28;20125;-75
2022/08/27 05:29:36;;;;;;;13.30;6.10;;;;;;;15.80;99.65;101609.59;5168791;28;20035;-75
2022/08/27 05:32:08;;;;;;;16.30;6.23;;;;;;;15.87;99.46;101607.34;5169996;28;20039;-75
2022/08/27 05:34:39;;;;;;;10.90;5.60;;;;;;;15.88;100.00;101605.56;5170625;28;20090;-76
2022/08/27 05:37:10;;;;;;;17.13;7.07;;;;;;;16.04;99.07;101611.47;5170278;28;20035;-75
2022/08/27 05:39:42;;;;;;;14.73;6.80;;;;;;;15.99;100.00;101615.38;5170089;28;20125;-76
2022/08/27 05:42:13;;;;;;;13.13;5.90;;;;;;;16.12;97.75;101610.94;5168820;28;20050;-75
2022/08/27 05:44:45;;;;;;;11.23;6.10;;;;;;;16.15;98.37;101615.16;5170546;28;20069;-75
2022/08/27 05:47:16;;;;;;;13.93;6.50;;;;;;;16.02;99.58;101612.56;5167437;28;20047;-75
2022/08/27 05:49:51;;;;;;;9.47;5.53;;;;;;;16.21;98.06;101610.25;5173955;28;21088;-75
2022/08/27 05:52:22;;;;;;;10.43;5.20;;;;;;;16.06;99.95;101621.94;5171304;28;20529;-75
2022/08/27 05:54:53;;;;;;;12.70;6.23;;;;;;;16.09;98.71;101613.81;5169955;28;20035;-75
2022/08/27 05:57:25;;;;;;;10.47;5.90;;;;;;;16.29;97.82;101617.66;5169647;28;20027;-75
2022/08/27 06:02:46;;;;;;;11.77;5.83;;;;;;;16.17;98.54;101619.38;5169254;28;20422;-75
2022/08/27 06:05:17;;;;;;;10.73;5.50;;;;;;;16.34;97.64;101625.25;5168363;28;20031;-76
2022/08/27 06:07:48;;;;;;;12.20;6.40;;;;;;;16.29;99.78;101622.94;5170271;28;20089;-75
2022/08/27 06:10:20;;;;;;;10.67;6.13;;;;;;;16.37;97.71;101629.47;5169767;28;20030;-76
2022/08/27 06:12:51;;;;;;;9.50;5.60;;;;;;;16.38;97.63;101626.72;5168173;28;20027;-76
2022/08/27 06:15:22;;;;;;;12.30;5.80;;;;;;;16.44;96.44;101631.53;5169916;28;20018;-76
2022/08/27 06:17:54;;;;;;;12.27;5.30;;;;;;;16.48;96.70;101634.00;5168213;28;20026;-76
2022/08/27 06:20:25;;;;;;;9.23;5.60;;;;;;;16.47;96.85;101634.94;5179922;28;20986;-76
2022/08/27 06:22:56;;;;;;;14.67;6.00;;;;;;;16.39;98.33;101632.84;5181069;28;20043;-75
2022/08/27 06:25:27;;;;;;;6.70;4.77;;;;;;;16.52;97.30;101633.66;5168691;28;20033;-76
2022/08/27 06:28:00;;;;;;;13.33;6.17;;;;;;;16.39;98.24;101630.22;5169902;28;20093;-76
2022/08/27 06:30:32;;;;;;;10.27;4.87;;;;;;;16.36;99.82;101633.06;5169329;28;20035;-75
2022/08/27 06:33:03;;;;;;;11.97;6.37;;;;;;;16.47;98.75;101635.78;5167701;28;20038;-76
2022/08/27 06:35:34;;;;;;;11.50;6.30;;;;;;;16.47;98.67;101633.13;5168730;28;20062;-75
2022/08/27 06:38:06;;;;;;;11.40;5.03;;;;;;;16.47;98.44;101629.66;5168438;28;20031;-77
2022/08/27 06:40:40;;;;;;;8.63;4.67;;;;;;;16.62;96.95;101639.09;5168814;28;20109;-76
2022/08/27 06:43:11;;;;;;;12.23;5.70;;;;;;;16.60;96.87;101635.72;5169003;28;20034;-76
2022/08/27 06:45:43;;;;;;;14.57;5.73;;;;;;;16.69;95.80;101634.19;5168581;28;20027;-73
2022/08/27 06:48:14;;;;;;;11.47;5.60;;;;;;;16.71;95.19;101631.44;5168139;28;20102;-76
2022/08/27 06:50:46;;;;;;;16.40;5.27;;;;;;;16.68;95.43;101638.66;5168576;28;20035;-76
2022/08/27 06:53:17;;;;;;;12.57;6.10;;;;;;;16.66;95.28;101629.16;5168510;28;20051;-76
2022/08/27 06:55:49;;;;;;;12.97;6.20;;;;;;;16.72;97.13;101631.31;5168663;28;20039;-76
2022/08/27 06:58:20;;;;;;;9.90;5.63;;;;;;;16.87;94.71;101637.31;5168542;28;20163;-76
2022/08/27 07:00:52;;;;;;;12.20;5.27;;;;;;;16.73;97.31;101629.53;5168547;28;20065;-76
2022/08/27 07:03:23;;;;;;;10.00;5.40;;;;;;;16.85;95.91;101635.72;5167409;28;20434;-76
2022/08/27 07:06:03;;;;;;;9.33;4.67;;;;;;;16.97;93.23;101641.88;5171685;28;20119;-76
2022/08/27 07:08:35;;;;;;;12.00;5.53;;;;;;;16.86;94.32;101638.25;5168273;28;20106;-75
2022/08/27 07:11:08;;;;;;;8.67;4.47;;;;;;;16.91;93.56;101635.28;5168436;28;20537;-77
2022/08/27 07:13:41;;;;;;;11.90;5.50;;;;;;;16.85;95.42;101638.34;5168859;28;20072;-79
2022/08/27 07:16:15;;;;;;;9.33;4.27;;;;;;;16.92;94.53;101640.44;5167402;28;20429;-86
2022/08/27 07:18:48;;;;;;;14.40;5.03;;;;;;;17.05;93.88;101647.47;5168483;28;20034;-85
2022/08/27 07:21:20;;;;;;;11.30;4.93;;;;;;;17.13;92.68;101650.41;5168555;28;20030;-86
2022/08/27 07:23:53;;;;;;;6.33;4.47;;;;;;;17.03;93.47;101647.59;5180484;28;20026;-84
2022/08/27 07:26:25;;;;;;;11.37;5.00;;;;;;;17.04;92.09;101643.13;5181696;28;20031;-85
2022/08/27 07:28:56;;;;;;;11.87;4.43;;;;;;;17.25;91.81;101646.00;5168568;28;20030;-88
2022/08/27 07:31:27;;;;;;;9.90;4.37;;;;;;;17.05;91.17;101650.13;5167566;28;20031;-85
2022/08/27 07:33:59;;;;;;;10.53;5.27;;;;;;;17.23;91.22;101650.53;5165651;28;20022;-81
2022/08/27 07:36:31;;;;;;;11.93;4.33;;;;;;;17.39;90.58;101655.53;5167725;28;20041;-83
2022/08/27 07:39:03;;;;;;;11.60;4.50;;;;;;;17.36;89.49;101653.13;5168640;28;20058;-85
2022/08/27 07:44:23;;;;;;;10.17;4.77;;;;;;;17.42;89.18;101651.78;5168563;28;20035;-82
2022/08/27 07:44:26;;;;;;;12.87;4.27;;;;;;;17.52;87.00;101654.59;5168613;28;20047;-80
2022/08/27 07:46:58;;;;;;;8.23;4.37;;;;;;;17.56;87.54;101649.91;5166714;28;20031;-84
2022/08/27 07:49:30;;;;;;;7.80;4.40;;;;;;;17.65;86.81;101647.38;5167858;28;20033;-80
2022/08/27 07:52:03;;;;;;;11.20;4.70;;;;;;;17.80;85.36;101660.41;5166409;28;20615;-78
2022/08/27 07:54:34;;;;;;;12.37;7.47;;;;;;;18.01;85.31;101664.97;5165554;28;20141;-84
2022/08/27 07:57:05;;;;;;;8.93;4.60;;;;;;;18.18;83.95;101665.47;5167710;28;20130;-84
2022/08/27 07:59:37;;;;;;;16.67;6.00;;;;;;;18.32;82.44;101654.63;5166013;28;20042;-85
2022/08/27 08:02:08;;;;;;;10.17;5.13;;;;;;;19.30;79.70;101661.75;5166634;28;20050;-83
2022/08/27 08:04:39;;;;;;;7.00;3.87;;;;;;;19.40;73.75;101663.59;5165850;28;20541;-82
2022/08/27 08:07:11;;;;;;;7.63;4.47;;;;;;;19.38;74.83;101655.78;5165851;28;20026;-82
2022/08/27 08:09:42;;;;;;;8.40;4.18;;;;;;;19.49;74.06;101664.66;5166104;28;20031;-78
2022/08/27 08:12:13;;;;;;;6.97;3.28;;;;;;;19.53;71.48;101658.94;5171120;28;20490;-75
2022/08/27 08:14:45;;;;;;;8.97;3.80;;;;;;;20.01;70.23;101659.28;5167497;28;20031;-76
2022/08/27 08:17:17;;;;;;;6.75;3.60;;;;;;;20.39;69.23;101656.03;5164559;28;20018;-72
2022/08/27 08:19:48;;;;;;;8.30;3.35;;;;;;;20.96;66.34;101660.75;5167001;28;20023;-77
2022/08/27 08:22:20;;;;;;;7.40;3.67;;;;;;;21.20;63.67;101653.28;5165825;28;20026;-77
2022/08/27 08:24:52;;;;;;;10.40;4.85;;;;;;;21.56;63.57;101665.94;5165369;28;20059;-75
2022/08/27 08:27:23;;;;;;;8.77;3.78;;;;;;;22.18;61.56;101660.13;5166302;28;20026;-75
2022/08/27 08:29:54;;;;;;;4.78;2.90;;;;;;;23.31;56.55;101660.63;5166739;28;20033;-81
2022/08/27 08:32:26;;;;;;;9.60;3.38;;;;;;;23.65;54.12;101661.69;5166323;28;20035;-72
2022/08/27 08:34:58;;;;;;;8.35;4.25;;;;;;;25.03;52.54;101670.59;5167247;28;20023;-72
2022/08/27 08:37:30;;;;;;;11.35;5.10;;;;;;;25.68;49.87;101676.00;5165139;28;20031;-76
2022/08/27 08:40:03;;;;;;;8.32;5.32;;;;;;;26.12;49.01;101677.34;5168327;28;20039;-76
2022/08/27 08:42:50;;;;;;;5.78;2.53;;;;;;;26.47;49.49;101677.00;5170953;28;20039;-78
2022/08/27 08:45:28;;;;;;;10.00;4.13;;;;;;;27.36;46.58;101665.84;5171540;28;20031;-77
2022/08/27 08:48:16;;;;;;;6.03;2.90;;;;;;;27.55;47.75;101664.44;5169583;28;20055;-76
2022/08/27 08:51:02;;;;;;;11.30;5.82;;;;;;;28.09;45.05;101677.75;5171617;28;20383;-77
2022/08/27 08:54:01;;;;;;;7.63;3.97;;;;;;;28.16;45.02;101670.59;5172084;28;20339;-79
2022/08/27 08:56:53;;;;;;;10.65;3.42;;;;;;;28.10;43.47;101676.75;5169783;28;20031;-77
2022/08/27 08:59:37;;;;;;;8.55;3.03;;;;;;;28.25;41.97;101663.25;5169493;28;20558;-76
2022/08/27 09:02:13;;;;;;;9.07;3.75;;;;;;;28.44;39.25;101671.75;5170290;28;20082;-76
2022/08/27 09:04:44;;;;;;;28.17;5.32;;;;;;;28.19;40.01;101667.53;5170275;28;20061;-76
2022/08/27 09:07:32;;;;;;;56.28;7.72;;;;;;;28.79;40.65;101677.25;5169691;28;20050;-76
2022/08/27 09:10:12;;;;;;;8.88;2.63;;;;;;;29.89;36.18;101674.22;5174730;28;20510;-76
2022/08/27 09:12:44;;;;;;;27.20;3.35;;;;;;;28.34;36.83;101677.44;5166635;28;20485;-77
2022/08/27 09:15:23;;;;;;;7.57;3.00;;;;;;;27.93;38.60;101676.97;5170068;28;20035;-77
2022/08/27 09:18:10;;;;;;;7.80;3.75;;;;;;;28.14;40.07;101678.88;5170094;28;20430;-77
2022/08/27 09:20:48;;;;;;;6.47;2.53;;;;;;;27.23;40.24;101679.94;5169342;28;20490;-77
2022/08/27 09:23:42;;;;;;;5.45;2.03;;;;;;;27.15;40.64;101675.47;5170518;28;20110;-77
2022/08/27 09:26:22;;;;;;;4.53;1.85;;;;;;;27.10;41.09;101685.94;5158013;28;20065;-73
2022/08/27 09:31:58;;;;;;;7.47;2.00;;;;;;;26.28;41.50;101680.94;5169500;28;20157;-78
2022/08/27 09:34:39;;;;;;;7.30;1.80;;;;;;;26.40;41.15;101673.34;5169331;28;20027;-76
2022/08/27 09:37:19;;;;;;;4.90;1.95;;;;;;;25.71;43.47;101671.13;5166622;28;20081;-76
2022/08/27 09:40:00;;;;;;;3.35;1.65;;;;;;;25.58;43.28;101676.19;5160055;28;20035;-75
2022/08/27 09:42:49;;;;;;;4.57;1.60;;;;;;;25.87;42.41;101676.63;5170290;28;20031;-76
2022/08/27 09:45:26;;;;;;;5.05;2.90;;;;;;;25.31;42.27;101678.25;5168386;28;20081;-76
2022/08/27 09:48:13;;;;;;;5.10;2.35;;;;;;;25.22;43.72;101672.09;5166373;28;20042;-76
2022/08/27 09:50:49;;;;;;;4.32;1.80;;;;;;;25.84;42.20;101677.78;5169973;28;20043;-76
2022/08/27 09:53:26;;;;;;;5.50;2.08;;;;;;;26.86;40.24;101677.03;5167072;28;20081;-76
2022/08/27 09:56:02;;;;;;;4.38;2.03;;;;;;;27.33;39.13;101677.81;5170935;28;20039;-76
2022/08/27 09:58:51;;;;;;;6.45;2.13;;;;;;;28.74;38.69;101677.84;5167262;28;20546;-76
2022/08/27 10:01:25;;;;;;;4.65;2.03;;;;;;;29.69;35.72;101683.09;5172098;28;20102;-76
2022/08/27 10:04:12;;;;;;;3.95;1.90;;;;;;;30.00;37.61;101678.22;5168210;28;20059;-77
2022/08/27 10:06:47;;;;;;;7.68;2.10;;;;;;;30.04;34.45;101684.88;5169773;28;20031;-76
2022/08/27 10:09:31;;;;;;;4.35;1.90;;;;;;;28.61;35.75;101689.31;5167364;28;20026;-76
2022/08/27 10:12:14;;;;;;;6.28;1.88;;;;;;;30.13;34.95;101682.81;5169960;28;20026;-76
2022/08/27 10:14:51;;;;;;;5.97;2.10;;;;;;;29.15;36.54;101680.06;5170324;28;20058;-76
2022/08/27 10:17:47;;;;;;;4.60;2.00;;;;;;;29.65;34.99;101671.88;5168952;28;20039;-76
2022/08/27 10:20:41;;;;;;;6.78;2.20;;;;;;;30.65;35.19;101671.53;5169364;28;20065;-77
2022/08/27 10:23:34;;;;;;;3.92;1.67;;;;;;;30.60;34.85;101666.72;5169750;28;20030;-78
2022/08/27 10:26:21;;;;;;;5.68;1.77;;;;;;;30.43;34.71;101677.09;5168886;28;20485;-77
2022/08/27 10:29:04;;;;;;;7.45;2.42;;;;;;;31.24;32.98;101666.28;5169479;28;20039;-76
2022/08/27 10:32:02;;;;;;;7.45;2.30;;;;;;;31.06;32.84;101672.34;5166479;28;20026;-76
2022/08/27 10:34:43;;;;;;;5.00;1.80;;;;;;;30.50;33.75;101677.09;5166067;28;20043;-78
2022/08/27 10:37:30;;;;;;;4.45;1.92;;;;;;;29.63;35.22;101663.13;5167581;28;20039;-77
2022/08/27 10:40:23;;;;;;;4.13;2.03;;;;;;;29.28;35.68;101665.81;5168919;28;20073;-76
2022/08/27 10:43:15;;;;;;;4.30;1.80;;;;;;;29.10;35.22;101664.44;5168923;28;20038;-78
2022/08/27 10:46:14;;;;;;;4.93;1.83;;;;;;;28.73;35.76;101665.38;5161489;28;20042;-77
2022/08/27 10:48:59;;;;;;;3.60;1.77;;;;;;;28.41;35.94;101672.13;5138227;28;20772;-76
2022/08/27 10:51:39;;;;;;;6.35;2.22;;;;;;;27.81;37.11;101665.00;5168066;28;20058;-76
2022/08/27 10:54:29;;;;;;;6.72;2.38;;;;;;;27.54;37.87;101663.59;5167434;28;20474;-76
2022/08/27 10:57:15;;;;;;;8.80;2.50;;;;;;;27.08;38.36;101666.44;5187901;28;20030;-75
2022/08/27 11:00:10;;;;;;;5.80;1.80;;;;;;;27.14;38.64;101654.97;5178630;28;20066;-76
2022/08/27 11:02:53;;;;;;;4.72;1.88;;;;;;;27.10;37.98;101667.13;5170664;28;20055;-75
2022/08/27 11:05:35;;;;;;;6.60;2.33;;;;;;;26.78;39.09;101651.06;5168588;28;20058;-76
2022/08/27 11:08:20;;;;;;;3.80;1.77;;;;;;;26.47;40.15;101668.94;5168679;28;20093;-75
2022/08/27 11:10:58;;;;;;;7.22;2.10;;;;;;;26.32;39.10;101652.72;5188432;28;20037;-75
2022/08/27 11:13:34;;;;;;;6.10;1.90;;;;;;;25.93;40.36;101675.91;5167029;28;20800;-74
2022/08/27 11:16:24;;;;;;;4.63;1.83;;;;;;;26.58;39.69;101659.63;5169542;28;20073;-75
2022/08/27 11:19:05;;;;;;;4.63;1.88;;;;;;;26.36;40.04;101650.56;5167604;28;20035;-74
2022/08/27 11:22:15;;;;;;;5.53;1.95;;;;;;;26.97;39.47;101656.97;5189200;28;20114;-74
2022/08/27 11:24:56;;;;;;;8.68;2.17;;;;;;;26.48;39.83;101651.78;5169682;28;20062;-74
2022/08/27 11:27:30;;;;;;;4.40;1.70;;;;;;;26.15;40.14;101658.19;5168029;28;20126;-75
2022/08/27 11:30:18;;;;;;;6.38;2.03;;;;;;;26.02;40.31;101658.78;5179870;28;20083;-75
2022/08/27 11:33:19;;;;;;;5.43;1.70;;;;;;;26.62;40.20;101658.25;5172121;28;20500;-74
2022/08/27 11:36:30;;;;;;;4.38;1.75;;;;;;;26.87;39.39;101646.44;5170662;28;20522;-77
2022/08/27 11:39:33;;;;;;;3.67;1.40;;;;;;;26.46;39.68;101635.06;5167442;28;20041;-77
2022/08/27 11:42:26;;;;;;;4.60;1.60;;;;;;;26.02;40.81;101653.41;5147904;28;20053;-78
2022/08/27 11:45:06;;;;;;;4.68;1.70;;;;;;;26.36;40.41;101655.94;5166435;28;20066;-72
2022/08/27 11:47:37;;;;;;;5.20;1.90;;;;;;;26.20;39.98;101649.59;5167736;28;20035;-75
2022/08/27 11:50:16;;;;;;;5.82;1.52;;;;;;;26.25;40.51;101644.53;5170172;28;20033;-75
2022/08/27 11:52:54;;;;;;;4.40;1.48;;;;;;;26.19;40.85;101650.63;5172146;28;20115;-79
2022/08/27 11:55:32;;;;;;;4.45;1.48;;;;;;;25.66;40.75;101653.91;5177544;28;20043;-75
2022/08/27 11:58:20;;;;;;;4.15;2.05;;;;;;;25.80;40.48;101652.31;5163964;28;20031;-73
2022/08/27 12:00:52;;;;;;;10.73;2.00;;;;;;;25.72;39.86;101661.25;5166805;28;20053;-77
2022/08/27 12:03:31;;;;;;;3.42;1.50;;;;;;;25.93;39.46;101641.03;5167619;28;20545;-76
2022/08/27 12:06:02;;;;;;;7.47;1.73;;;;;;;25.59;40.12;101651.03;5167057;28;20031;-75
2022/08/27 12:08:35;;;;;;;6.72;1.88;;;;;;;25.47;40.61;101646.03;5168214;28;20027;-75